createdAt,value
2022-12-01T00:02:25.012Z,51.17
2022-12-01T00:04:52.209Z,55.95
2022-12-01T00:07:19.467Z,56.22
2022-12-01T00:10:05.543Z,50.70
2022-12-01T00:12:32.691Z,52.50
2022-12-01T00:15:01.150Z,50.67
2022-12-01T00:17:29.390Z,51.05
2022-12-01T00:19:56.798Z,52.65
2022-12-01T00:22:24.052Z,55.38
2022-12-01T00:24:51.220Z,55.33
2022-12-01T00:27:18.811Z,51.95
2022-12-01T00:29:47.107Z,54.33
2022-12-01T00:32:14.923Z,53.65
2022-12-01T00:34:42.086Z,51.88
2022-12-01T00:37:09.660Z,56.20
2022-12-01T00:39:36.828Z,49.70
2022-12-01T00:42:05.461Z,52.60
2022-12-01T00:44:34.569Z,47.85
2022-12-01T00:47:01.679Z,49.45
2022-12-01T00:49:28.921Z,47.38
2022-12-01T00:51:56.039Z,46.80
2022-12-01T00:54:23.208Z,46.28
2022-12-01T00:56:50.948Z,45.17
2022-12-01T00:59:18.063Z,45.13
2022-12-01T01:01:45.262Z,44.20
2022-12-01T01:04:12.444Z,40.85
2022-12-01T01:06:39.722Z,45.63
2022-12-01T01:09:06.845Z,43.58
2022-12-01T01:11:33.983Z,44.00
2022-12-01T01:14:01.202Z,44.40
2022-12-01T01:16:28.556Z,46.00
2022-12-01T01:18:55.932Z,47.50
2022-12-01T01:21:26.481Z,43.78
2022-12-01T01:23:54.207Z,46.53
2022-12-01T01:26:31.696Z,47.17
2022-12-01T01:28:59.544Z,43.13
2022-12-01T01:31:27.404Z,40.17
2022-12-01T01:33:55.635Z,44.55
2022-12-01T01:36:22.800Z,44.90
2022-12-01T01:38:53.381Z,43.55
2022-12-01T01:41:20.908Z,44.97
2022-12-01T01:43:49.444Z,43.25
2022-12-01T01:46:18.037Z,47.90
2022-12-01T01:48:49.956Z,42.22
2022-12-01T01:51:18.358Z,50.17
2022-12-01T01:53:46.214Z,48.90
2022-12-01T01:56:13.416Z,49.15
2022-12-01T01:58:40.906Z,50.90
2022-12-01T02:01:08.786Z,52.58
2022-12-01T02:03:37.880Z,49.00
2022-12-01T02:06:05.813Z,51.75
2022-12-01T02:08:35.189Z,50.80
2022-12-01T02:11:15.091Z,58.25
2022-12-01T02:14:01.186Z,55.55
2022-12-01T02:16:31.445Z,48.03
2022-12-01T02:19:17.273Z,56.95
2022-12-01T02:21:52.351Z,52.25
2022-12-01T02:24:33.299Z,51.15
2022-12-01T02:27:03.067Z,56.85
2022-12-01T02:29:30.156Z,55.33
2022-12-01T02:32:00.408Z,50.13
2022-12-01T02:34:33.316Z,55.50
2022-12-01T02:37:11.558Z,58.92
2022-12-01T02:39:55.358Z,63.92
2022-12-01T02:42:51.830Z,66.25
2022-12-01T02:45:29.708Z,67.72
2022-12-01T02:47:57.831Z,66.30
2022-12-01T02:50:26.194Z,70.93
2022-12-01T02:52:54.268Z,67.97
2022-12-01T02:55:21.553Z,71.25
2022-12-01T02:57:48.661Z,66.97
2022-12-01T03:00:16.326Z,71.70
2022-12-01T03:02:51.687Z,72.38
2022-12-01T03:05:21.760Z,73.00
2022-12-01T03:07:48.944Z,70.25
2022-12-01T03:10:30.228Z,71.72
2022-12-01T03:13:09.128Z,66.35
2022-12-01T03:15:51.036Z,67.55
2022-12-01T03:18:21.284Z,77.55
2022-12-01T03:20:57.403Z,77.20
2022-12-01T03:23:26.331Z,75.35
2022-12-01T03:25:55.495Z,66.97
2022-12-01T03:28:28.777Z,80.57
2022-12-01T03:30:58.650Z,65.50
2022-12-01T03:33:32.470Z,66.88
2022-12-01T03:36:05.758Z,67.63
2022-12-01T03:38:33.557Z,64.20
2022-12-01T03:41:02.844Z,68.18
2022-12-01T03:43:32.481Z,62.30
2022-12-01T03:46:07.691Z,67.32
2022-12-01T03:48:35.131Z,64.80
2022-12-01T03:51:14.600Z,70.72
2022-12-01T03:53:57.986Z,66.72
2022-12-01T03:56:27.243Z,57.33
2022-12-01T03:58:57.082Z,72.00
2022-12-01T04:01:26.457Z,69.75
2022-12-01T04:03:53.705Z,66.50
2022-12-01T04:06:20.804Z,68.93
2022-12-01T04:08:47.961Z,65.00
2022-12-01T04:11:33.783Z,68.78
2022-12-01T04:14:00.890Z,63.28
2022-12-01T04:16:28.110Z,73.07
2022-12-01T04:18:55.365Z,69.78
2022-12-01T04:21:22.483Z,61.75
2022-12-01T04:24:01.729Z,67.57
2022-12-01T04:26:29.597Z,73.57
2022-12-01T04:28:56.764Z,70.72
2022-12-01T04:31:24.012Z,78.15
2022-12-01T04:33:51.164Z,67.85
2022-12-01T04:36:18.395Z,75.53
2022-12-01T04:38:45.519Z,68.68
2022-12-01T04:41:13.330Z,62.70
2022-12-01T04:43:40.872Z,66.15
2022-12-01T04:46:08.478Z,69.45
2022-12-01T04:48:36.520Z,67.55
2022-12-01T04:51:04.575Z,65.68
2022-12-01T04:53:32.069Z,63.67
2022-12-01T04:56:02.591Z,57.55
2022-12-01T04:58:30.476Z,56.20
2022-12-01T05:01:09.398Z,66.57
2022-12-01T05:03:37.198Z,59.40
2022-12-01T05:06:15.155Z,57.55
2022-12-01T05:08:42.414Z,57.35
2022-12-01T05:11:11.854Z,52.20
2022-12-01T05:13:42.951Z,51.92
2022-12-01T05:16:11.508Z,47.90
2022-12-01T05:18:38.731Z,50.67
2022-12-01T05:21:06.721Z,54.17
2022-12-01T05:23:35.505Z,54.42
2022-12-01T05:26:03.018Z,48.03
2022-12-01T05:28:30.169Z,49.75
2022-12-01T05:30:57.386Z,45.72
2022-12-01T05:33:25.258Z,48.53
2022-12-01T05:35:52.787Z,52.22
2022-12-01T05:38:20.539Z,46.60
2022-12-01T05:40:51.574Z,51.35
2022-12-01T05:43:21.602Z,46.60
2022-12-01T05:45:51.162Z,50.78
2022-12-01T05:48:18.370Z,50.70
2022-12-01T05:50:45.762Z,42.97
2022-12-01T05:53:13.685Z,49.40
2022-12-01T05:55:41.606Z,48.72
2022-12-01T05:58:09.072Z,49.58
2022-12-01T06:00:40.897Z,50.00
2022-12-01T06:03:12.344Z,50.83
2022-12-01T06:05:39.468Z,51.00
2022-12-01T06:08:06.674Z,51.88
2022-12-01T06:10:33.852Z,49.85
2022-12-01T06:13:00.957Z,48.17
2022-12-01T06:15:28.164Z,47.33
2022-12-01T06:17:55.275Z,46.95
2022-12-01T06:20:23.411Z,47.85
2022-12-01T06:22:50.502Z,54.63
2022-12-01T06:25:17.767Z,49.90
2022-12-01T06:27:44.981Z,46.90
2022-12-01T06:30:12.242Z,53.20
2022-12-01T06:32:39.382Z,49.35
2022-12-01T06:35:06.748Z,49.67
2022-12-01T06:37:33.902Z,51.25
2022-12-01T06:40:01.059Z,49.47
2022-12-01T06:42:30.161Z,45.38
2022-12-01T06:44:57.309Z,47.55
2022-12-01T06:47:24.506Z,43.45
2022-12-01T06:49:52.043Z,47.88
2022-12-01T06:52:19.327Z,51.63
2022-12-01T06:54:46.424Z,42.63
2022-12-01T06:57:13.862Z,44.38
2022-12-01T06:59:41.201Z,42.33
2022-12-01T07:02:10.467Z,46.95
2022-12-01T07:04:37.737Z,44.88
2022-12-01T07:07:05.428Z,46.15
2022-12-01T07:09:32.567Z,41.85
2022-12-01T07:11:59.760Z,45.10
2022-12-01T07:14:27.317Z,46.80
2022-12-01T07:16:54.720Z,48.75
2022-12-01T07:19:22.199Z,43.92
2022-12-01T07:21:49.294Z,43.55
2022-12-01T07:24:16.487Z,44.78
2022-12-01T07:26:44.003Z,47.92
2022-12-01T07:29:11.290Z,43.15
2022-12-01T07:31:38.903Z,66.90
2022-12-01T07:34:06.228Z,50.40
2022-12-01T07:36:33.386Z,44.35
2022-12-01T07:39:00.964Z,46.58
2022-12-01T07:41:28.092Z,43.13
2022-12-01T07:43:55.722Z,48.88
2022-12-01T07:46:24.947Z,46.65
2022-12-01T07:48:52.660Z,44.40
2022-12-01T07:51:20.165Z,40.97
2022-12-01T07:53:49.137Z,41.90
2022-12-01T07:56:16.827Z,42.10
2022-12-01T07:58:44.055Z,44.00
2022-12-01T08:01:15.470Z,43.28
2022-12-01T08:03:43.056Z,37.33
2022-12-01T08:06:10.699Z,41.38
2022-12-01T08:08:38.775Z,37.67
2022-12-01T08:11:07.174Z,37.35
2022-12-01T08:13:34.513Z,42.17
2022-12-01T08:16:04.586Z,34.17
2022-12-01T08:18:31.738Z,40.10
2022-12-01T08:20:58.941Z,39.70
2022-12-01T08:23:26.116Z,37.88
2022-12-01T08:25:53.462Z,41.08
2022-12-01T08:28:20.771Z,39.35
2022-12-01T08:30:48.139Z,37.53
2022-12-01T08:33:15.348Z,40.80
2022-12-01T08:35:42.517Z,41.45
2022-12-01T08:38:09.919Z,39.88
2022-12-01T08:40:37.129Z,39.63
2022-12-01T08:43:05.052Z,40.05
2022-12-01T08:45:32.272Z,37.92
2022-12-01T08:47:59.909Z,39.38
2022-12-01T08:50:27.955Z,37.03
2022-12-01T08:52:55.285Z,38.28
2022-12-01T08:55:22.994Z,43.45
2022-12-01T08:57:50.103Z,37.78
2022-12-01T09:00:17.475Z,36.00
2022-12-01T09:02:44.633Z,34.90
2022-12-01T09:05:11.832Z,32.28
2022-12-01T09:07:39.096Z,36.03
2022-12-01T09:10:06.562Z,32.33
2022-12-01T09:12:33.689Z,35.28
2022-12-01T09:15:00.899Z,35.38
2022-12-01T09:17:29.125Z,37.97
2022-12-01T09:19:56.262Z,33.15
2022-12-01T09:22:23.416Z,31.75
2022-12-01T09:24:50.502Z,38.38
2022-12-01T09:27:17.637Z,36.42
2022-12-01T09:29:44.791Z,36.80
2022-12-01T09:32:11.955Z,34.28
2022-12-01T09:34:39.060Z,33.60
2022-12-01T09:37:06.913Z,34.65
2022-12-01T09:39:34.022Z,36.20
2022-12-01T09:42:09.337Z,33.47
2022-12-01T09:44:53.561Z,34.97
2022-12-01T09:47:35.289Z,33.65
2022-12-01T09:50:05.263Z,34.88
2022-12-01T09:52:40.635Z,36.50
2022-12-01T09:55:12.399Z,34.80
2022-12-01T09:57:40.428Z,34.72
2022-12-01T10:00:16.352Z,37.13
2022-12-01T10:02:47.769Z,33.63
2022-12-01T10:05:19.604Z,35.63
2022-12-01T10:08:07.093Z,33.63
2022-12-01T10:10:37.108Z,37.15
2022-12-01T10:13:09.767Z,34.17
2022-12-01T10:15:42.946Z,34.15
2022-12-01T10:18:18.977Z,36.38
2022-12-01T10:21:11.354Z,35.92
2022-12-01T10:23:44.320Z,38.05
2022-12-01T10:26:16.793Z,37.72
2022-12-01T10:29:05.598Z,35.45
2022-12-01T10:31:51.383Z,32.15
2022-12-01T10:34:22.124Z,34.22
2022-12-01T10:36:49.424Z,33.53
2022-12-01T10:39:37.599Z,36.10
2022-12-01T10:42:07.266Z,32.08
2022-12-01T10:44:35.757Z,33.97
2022-12-01T10:47:02.990Z,31.50
2022-12-01T10:49:38.035Z,34.75
2022-12-01T10:52:05.381Z,34.33
2022-12-01T10:54:34.338Z,37.05
2022-12-01T10:57:02.218Z,31.15
2022-12-01T10:59:29.340Z,31.23
2022-12-01T11:01:57.531Z,33.33
2022-12-01T11:04:32.092Z,32.00
2022-12-01T11:06:59.384Z,37.58
2022-12-01T11:09:28.157Z,38.67
2022-12-01T11:11:56.831Z,35.53
2022-12-01T11:14:27.782Z,34.95
2022-12-01T11:16:54.991Z,33.17
2022-12-01T11:19:32.885Z,35.80
2022-12-01T11:22:01.187Z,30.30
2022-12-01T11:24:31.422Z,33.72
2022-12-01T11:26:59.532Z,32.13
2022-12-01T11:29:26.610Z,35.63
2022-12-01T11:31:54.136Z,30.20
2022-12-01T11:34:22.565Z,30.17
2022-12-01T11:36:51.292Z,37.05
2022-12-01T11:39:31.768Z,34.75
2022-12-01T11:42:01.015Z,38.03
2022-12-01T11:44:50.326Z,34.13
2022-12-01T11:47:24.946Z,31.85
2022-12-01T11:49:57.520Z,35.45
2022-12-01T11:52:29.985Z,34.72
2022-12-01T11:55:12.254Z,32.30
2022-12-01T11:57:43.907Z,34.58
2022-12-01T12:00:18.465Z,35.90
2022-12-01T12:02:51.717Z,34.63
2022-12-01T12:05:37.817Z,31.05
2022-12-01T12:08:10.756Z,34.10
2022-12-01T12:10:45.636Z,39.28
2022-12-01T12:18:20.729Z,32.80
2022-12-01T12:20:54.050Z,32.28
2022-12-01T12:23:24.863Z,37.38
2022-12-01T12:26:02.898Z,35.00
2022-12-01T12:28:33.101Z,34.90
2022-12-01T12:31:12.263Z,34.33
2022-12-01T12:33:42.534Z,37.38
2022-12-01T12:36:09.638Z,36.35
2022-12-01T12:38:39.750Z,40.00
2022-12-01T12:41:29.781Z,34.72
2022-12-01T12:44:10.167Z,34.53
2022-12-01T12:46:43.374Z,34.75
2022-12-01T12:49:20.482Z,37.42
2022-12-01T12:51:48.114Z,40.10
2022-12-01T12:54:25.437Z,36.92
2022-12-01T12:56:56.064Z,35.05
2022-12-01T12:59:30.777Z,35.30
2022-12-01T13:02:24.086Z,38.47
2022-12-01T13:04:51.533Z,33.20
2022-12-01T13:07:35.028Z,37.20
2022-12-01T13:10:07.827Z,32.47
2022-12-01T13:12:41.240Z,39.03
2022-12-01T13:15:19.354Z,38.55
2022-12-01T13:17:50.355Z,29.83
2022-12-01T13:20:20.113Z,33.63
2022-12-01T13:22:48.282Z,38.33
2022-12-01T13:25:17.538Z,35.05
2022-12-01T13:27:45.515Z,36.85
2022-12-01T13:30:23.692Z,32.05
2022-12-01T13:32:58.535Z,42.03
2022-12-01T13:35:27.878Z,30.95
2022-12-01T13:37:56.429Z,35.67
2022-12-01T13:40:26.432Z,44.25
2022-12-01T13:43:10.533Z,33.67
2022-12-01T13:45:40.074Z,34.33
2022-12-01T13:48:08.121Z,33.53
2022-12-01T13:50:46.134Z,35.38
2022-12-01T13:53:15.279Z,35.75
2022-12-01T13:56:01.971Z,30.83
2022-12-01T13:58:35.179Z,36.22
2022-12-01T14:01:21.711Z,36.35
2022-12-01T14:03:56.875Z,33.90
2022-12-01T14:06:30.069Z,32.90
2022-12-01T14:09:20.625Z,34.35
2022-12-01T14:11:58.022Z,33.05
2022-12-01T14:14:26.545Z,32.60
2022-12-01T14:16:53.740Z,35.63
2022-12-01T14:19:28.097Z,35.67
2022-12-01T14:21:55.398Z,39.17
2022-12-01T14:24:42.726Z,36.78
2022-12-01T14:27:11.876Z,36.85
2022-12-01T14:29:40.041Z,34.38
2022-12-01T14:32:10.192Z,30.77
2022-12-01T14:34:38.185Z,30.88
2022-12-01T14:37:08.101Z,37.40
2022-12-01T14:39:42.410Z,33.17
2022-12-01T14:42:12.369Z,38.75
2022-12-01T14:44:48.184Z,31.55
2022-12-01T14:47:23.192Z,34.47
2022-12-01T14:49:57.326Z,34.03
2022-12-01T14:52:27.214Z,35.10
2022-12-01T14:54:59.729Z,30.25
2022-12-01T14:57:46.907Z,30.67
2022-12-01T15:00:17.287Z,33.13
2022-12-01T15:02:52.047Z,27.77
2022-12-01T15:05:23.927Z,29.90
2022-12-01T15:07:52.974Z,31.65
2022-12-01T15:10:35.085Z,33.58
2022-12-01T15:13:20.898Z,31.00
2022-12-01T15:15:56.908Z,31.85
2022-12-01T15:18:29.127Z,29.45
2022-12-01T15:20:58.701Z,32.47
2022-12-01T15:23:25.878Z,29.65
2022-12-01T15:25:53.131Z,29.85
2022-12-01T15:28:21.950Z,30.90
2022-12-01T15:30:51.757Z,30.98
2022-12-01T15:33:27.277Z,32.10
2022-12-01T15:35:55.770Z,28.65
2022-12-01T15:38:24.583Z,34.47
2022-12-01T15:41:21.294Z,32.53
2022-12-01T15:43:41.227Z,29.92
2022-12-01T15:46:13.549Z,29.52
2022-12-01T15:48:41.729Z,28.40
2022-12-01T15:51:11.598Z,29.83
2022-12-01T15:53:42.621Z,33.40
2022-12-01T15:56:10.737Z,27.83
2022-12-01T15:58:41.996Z,26.67
2022-12-01T16:01:13.636Z,27.42
2022-12-01T16:03:55.221Z,30.13
2022-12-01T16:06:24.219Z,31.67
2022-12-01T16:08:56.294Z,32.38
2022-12-01T16:11:23.734Z,30.27
2022-12-01T16:13:59.749Z,28.80
2022-12-01T16:16:45.890Z,32.10
2022-12-01T16:19:13.099Z,33.40
2022-12-01T16:21:49.142Z,30.98
2022-12-01T16:24:21.639Z,29.63
2022-12-01T16:26:56.831Z,27.83
2022-12-01T16:29:25.164Z,29.00
2022-12-01T16:32:18.599Z,28.58
2022-12-01T16:34:47.450Z,34.42
2022-12-01T16:37:15.423Z,30.55
2022-12-01T16:39:42.941Z,31.52
2022-12-01T16:42:17.265Z,35.85
2022-12-01T16:44:46.360Z,30.88
2022-12-01T16:47:15.387Z,29.75
2022-12-01T16:49:42.585Z,30.23
2022-12-01T16:52:36.558Z,30.88
2022-12-01T16:54:57.210Z,30.20
2022-12-01T16:57:24.344Z,29.77
2022-12-01T16:59:51.450Z,27.45
2022-12-01T17:02:18.614Z,31.83
2022-12-01T17:04:45.755Z,34.30
2022-12-01T17:07:12.922Z,29.08
2022-12-01T17:09:40.072Z,31.83
2022-12-01T17:12:07.238Z,34.67
2022-12-01T17:14:34.399Z,30.30
2022-12-01T17:17:01.548Z,31.65
2022-12-01T17:19:29.052Z,28.10
2022-12-01T17:21:57.009Z,31.10
2022-12-01T17:24:25.881Z,30.33
2022-12-01T17:26:53.061Z,31.85
2022-12-01T17:29:20.169Z,31.40
2022-12-01T17:31:47.386Z,32.13
2022-12-01T17:34:14.519Z,36.75
2022-12-01T17:36:41.742Z,30.35
2022-12-01T17:39:08.891Z,35.72
2022-12-01T17:41:36.178Z,31.05
2022-12-01T17:44:04.159Z,33.72
2022-12-01T17:46:31.951Z,30.25
2022-12-01T17:48:59.533Z,30.17
2022-12-01T17:51:26.649Z,30.80
2022-12-01T17:53:54.340Z,37.00
2022-12-01T17:56:21.572Z,33.13
2022-12-01T17:58:50.544Z,31.77
2022-12-01T18:01:18.456Z,36.75
2022-12-01T18:03:46.306Z,29.10
2022-12-01T18:06:13.884Z,32.47
2022-12-01T18:08:41.759Z,31.33
2022-12-01T18:11:10.148Z,34.17
2022-12-01T18:13:38.337Z,32.60
2022-12-01T18:16:13.080Z,29.88
2022-12-01T18:18:40.614Z,30.88
2022-12-01T18:21:12.336Z,33.05
2022-12-01T18:23:40.874Z,35.10
2022-12-01T18:26:15.468Z,34.15
2022-12-01T18:28:43.052Z,29.90
2022-12-01T18:31:11.681Z,34.65
2022-12-01T18:33:40.324Z,34.70
2022-12-01T18:36:12.252Z,36.55
2022-12-01T18:38:39.496Z,33.85
2022-12-01T18:41:06.675Z,30.92
2022-12-01T18:43:33.884Z,31.67
2022-12-01T18:46:01.085Z,33.92
2022-12-01T18:48:28.228Z,30.80
2022-12-01T18:50:59.452Z,29.77
2022-12-01T18:53:27.230Z,31.55
2022-12-01T18:55:54.346Z,31.08
2022-12-01T18:58:21.516Z,32.33
2022-12-01T19:00:48.728Z,32.60
2022-12-01T19:03:16.000Z,32.65
2022-12-01T19:05:43.138Z,33.08
2022-12-01T19:08:10.350Z,34.53
2022-12-01T19:10:37.624Z,34.00
2022-12-01T19:15:09.735Z,33.47
2022-12-01T19:17:36.839Z,38.10
2022-12-01T19:20:04.832Z,35.80
2022-12-01T19:22:32.607Z,29.65
2022-12-01T19:24:59.722Z,33.63
2022-12-01T19:27:27.152Z,32.85
2022-12-01T19:29:54.336Z,33.53
2022-12-01T19:32:21.583Z,35.30
2022-12-01T19:34:48.983Z,31.27
2022-12-01T19:37:16.427Z,27.67
2022-12-01T19:39:43.575Z,31.63
2022-12-01T19:42:11.020Z,35.83
2022-12-01T19:44:38.122Z,32.95
2022-12-01T19:47:06.392Z,33.72
2022-12-01T19:49:33.549Z,31.88
2022-12-01T19:52:00.743Z,33.88
2022-12-01T19:54:28.805Z,30.73
2022-12-01T19:56:56.072Z,32.05
2022-12-01T19:59:23.224Z,33.15
2022-12-01T20:01:50.399Z,35.35
2022-12-01T20:04:17.577Z,35.50
2022-12-01T20:06:44.866Z,36.00
2022-12-01T20:09:12.049Z,37.92
2022-12-01T20:11:39.209Z,37.25
2022-12-01T20:14:07.768Z,33.47
2022-12-01T20:16:35.022Z,33.90
2022-12-01T20:19:03.083Z,35.13
2022-12-01T20:21:31.391Z,37.70
2022-12-01T20:24:02.710Z,38.92
2022-12-01T20:26:35.179Z,37.85
2022-12-01T20:29:03.767Z,33.67
2022-12-01T20:31:31.853Z,36.60
2022-12-01T20:33:59.963Z,35.60
2022-12-01T20:36:27.513Z,34.42
2022-12-01T20:38:55.064Z,36.15
2022-12-01T20:41:22.199Z,35.47
2022-12-01T20:43:49.352Z,36.70
2022-12-01T20:46:16.649Z,35.00
2022-12-01T20:48:43.949Z,35.95
2022-12-01T20:51:12.949Z,36.30
2022-12-01T20:53:40.122Z,31.08
2022-12-01T20:56:09.105Z,34.40
2022-12-01T20:58:37.981Z,39.03
2022-12-01T21:01:12.828Z,34.75
2022-12-01T21:03:40.928Z,38.67
2022-12-01T21:06:08.285Z,38.35
2022-12-01T21:08:37.511Z,37.30
2022-12-01T21:11:05.978Z,32.97
2022-12-01T21:13:42.005Z,40.13
2022-12-01T21:16:19.163Z,37.72
2022-12-01T21:18:49.140Z,39.28
2022-12-01T21:21:23.869Z,33.75
2022-12-01T21:24:09.720Z,31.40
2022-12-01T21:26:37.608Z,36.97
2022-12-01T21:29:12.839Z,38.53
2022-12-01T21:31:39.972Z,40.03
2022-12-01T21:34:12.610Z,37.15
2022-12-01T21:36:39.973Z,34.53
2022-12-01T21:39:13.625Z,31.48
2022-12-01T21:41:40.896Z,34.85
2022-12-01T21:44:19.052Z,36.53
2022-12-01T21:46:47.735Z,38.13
2022-12-01T21:49:32.110Z,35.97
2022-12-01T21:51:59.294Z,37.07
2022-12-01T21:54:26.568Z,38.55
2022-12-01T21:56:56.055Z,38.92
2022-12-01T21:59:23.916Z,40.17
2022-12-01T22:01:58.075Z,40.15
2022-12-01T22:04:26.644Z,29.90
2022-12-01T22:06:54.728Z,40.08
2022-12-01T22:09:30.116Z,40.35
2022-12-01T22:11:58.911Z,35.53
2022-12-01T22:14:30.552Z,36.55
2022-12-01T22:16:59.088Z,36.45
2022-12-01T22:19:28.430Z,38.13
2022-12-01T22:22:00.702Z,37.67
2022-12-01T22:24:38.381Z,34.20
2022-12-01T22:27:24.265Z,38.92
2022-12-01T22:30:11.643Z,39.63
2022-12-01T22:32:40.174Z,39.05
2022-12-01T22:35:16.445Z,37.05
2022-12-01T22:37:47.848Z,39.72
2022-12-01T22:40:33.994Z,44.70
2022-12-01T22:43:14.159Z,35.75
2022-12-01T22:45:41.460Z,40.53
2022-12-01T22:48:19.801Z,43.03
2022-12-01T22:50:51.469Z,37.72
2022-12-01T22:53:20.510Z,38.83
2022-12-01T22:55:47.677Z,35.10
2022-12-01T22:58:23.528Z,39.13
2022-12-01T23:00:50.667Z,36.90
2022-12-01T23:03:18.099Z,38.28
2022-12-01T23:05:45.504Z,36.75
2022-12-01T23:08:17.238Z,39.40
2022-12-01T23:10:44.406Z,37.08
2022-12-01T23:13:20.810Z,39.92
2022-12-01T23:15:49.145Z,41.92
2022-12-01T23:18:26.978Z,36.63
2022-12-01T23:20:55.405Z,35.30
2022-12-01T23:23:30.019Z,40.20
2022-12-01T23:25:57.540Z,41.08
2022-12-01T23:28:25.103Z,37.53
2022-12-01T23:30:54.717Z,38.35
2022-12-01T23:33:23.384Z,37.20
2022-12-01T23:36:06.019Z,38.63
2022-12-01T23:38:33.128Z,38.47
2022-12-01T23:41:02.151Z,40.45
2022-12-01T23:43:30.813Z,36.80
2022-12-01T23:46:18.343Z,34.83
2022-12-01T23:49:07.153Z,41.20
2022-12-01T23:51:53.776Z,38.45
2022-12-01T23:54:31.744Z,40.90
2022-12-01T23:57:00.279Z,37.42
2022-12-01T23:59:27.993Z,36.53
